createdAt,value
2019-05-16T00:00:40.526Z,2.00
2019-05-16T00:01:40.231Z,1.80
2019-05-16T00:02:40.221Z,1.70
2019-05-16T00:03:40.234Z,1.90
2019-05-16T00:04:40.227Z,2.30
2019-05-16T00:05:50.415Z,2.00
2019-05-16T00:06:41.180Z,2.00
2019-05-16T00:07:40.160Z,2.00
2019-05-16T00:08:40.177Z,2.10
2019-05-16T00:09:40.161Z,1.90
2019-05-16T00:10:40.139Z,1.90
2019-05-16T00:11:40.119Z,2.00
2019-05-16T00:12:40.185Z,2.00
2019-05-16T00:13:40.097Z,2.00
2019-05-16T00:14:40.083Z,1.70
2019-05-16T00:15:40.115Z,1.90
2019-05-16T00:16:40.101Z,2.30
2019-05-16T00:17:40.066Z,1.90
2019-05-16T00:18:40.070Z,2.00
2019-05-16T00:19:40.027Z,1.90
2019-05-16T00:20:40.019Z,2.10
2019-05-16T00:21:40.064Z,2.10
2019-05-16T00:22:40.015Z,2.20
2019-05-16T00:23:39.993Z,2.30
2019-05-16T00:24:40.013Z,2.30
2019-05-16T00:25:39.967Z,2.10
2019-05-16T00:26:39.952Z,1.90
2019-05-16T00:27:40.019Z,2.20
2019-05-16T00:28:39.929Z,2.20
2019-05-16T00:29:39.920Z,2.10
2019-05-16T00:30:39.907Z,2.20
2019-05-16T00:31:39.899Z,2.50
2019-05-16T00:32:39.910Z,2.30
2019-05-16T00:33:39.910Z,2.40
2019-05-16T00:34:39.866Z,2.40
2019-05-16T00:35:39.854Z,2.60
2019-05-16T00:36:39.850Z,2.50
2019-05-16T00:37:39.838Z,2.40
2019-05-16T00:38:39.830Z,2.40
2019-05-16T00:39:39.837Z,2.40
2019-05-16T00:40:39.805Z,2.30
2019-05-16T00:41:39.803Z,2.40
2019-05-16T00:42:39.774Z,2.10
2019-05-16T00:43:39.763Z,2.50
2019-05-16T00:44:39.756Z,2.40
2019-05-16T00:45:39.783Z,2.20
2019-05-16T00:46:39.759Z,2.40
2019-05-16T00:47:39.720Z,2.50
2019-05-16T00:48:39.712Z,2.70
2019-05-16T00:49:39.695Z,2.40
2019-05-16T00:50:39.685Z,2.30
2019-05-16T00:51:39.697Z,2.10
2019-05-16T00:52:39.740Z,2.30
2019-05-16T00:53:39.677Z,2.40
2019-05-16T00:54:39.644Z,2.60
2019-05-16T00:55:39.642Z,2.20
2019-05-16T00:56:39.632Z,2.40
2019-05-16T00:57:39.637Z,2.40
2019-05-16T00:58:39.604Z,2.20
2019-05-16T00:59:39.584Z,2.50
2019-05-16T01:00:39.628Z,2.50
2019-05-16T01:01:39.561Z,2.70
2019-05-16T01:02:39.553Z,2.50
2019-05-16T01:03:39.593Z,2.40
2019-05-16T01:04:39.545Z,2.50
2019-05-16T01:05:39.531Z,2.60
2019-05-16T01:06:39.531Z,2.90
2019-05-16T01:07:39.497Z,2.60
2019-05-16T01:08:39.492Z,2.70
2019-05-16T01:09:39.510Z,2.50
2019-05-16T01:10:39.484Z,2.70
2019-05-16T01:11:39.450Z,2.50
2019-05-16T01:12:39.440Z,2.70
2019-05-16T01:13:39.474Z,2.40
2019-05-16T01:14:39.427Z,2.80
2019-05-16T01:15:39.437Z,2.30
2019-05-16T01:16:39.404Z,2.50
2019-05-16T01:17:39.413Z,2.70
2019-05-16T01:18:39.374Z,2.60
2019-05-16T01:19:39.366Z,2.60
2019-05-16T01:20:39.374Z,2.50
2019-05-16T01:21:39.359Z,2.70
2019-05-16T01:22:39.349Z,2.50
2019-05-16T01:23:39.327Z,2.70
2019-05-16T01:24:41.491Z,2.50
2019-05-16T01:25:39.294Z,2.60
2019-05-16T01:26:39.369Z,2.80
2019-05-16T01:27:39.343Z,2.60
2019-05-16T01:28:39.268Z,2.50
2019-05-16T01:29:39.260Z,2.80
2019-05-16T01:30:39.266Z,2.50
2019-05-16T01:31:39.234Z,2.70
2019-05-16T01:32:39.519Z,2.60
2019-05-16T01:33:39.246Z,2.60
2019-05-16T01:34:39.195Z,2.60
2019-05-16T01:35:41.752Z,2.70
2019-05-16T01:36:40.795Z,2.40
2019-05-16T01:37:39.165Z,2.60
2019-05-16T01:38:39.212Z,2.50
2019-05-16T01:39:39.171Z,2.80
2019-05-16T01:40:39.146Z,2.60
2019-05-16T01:41:39.157Z,2.80
2019-05-16T01:42:39.116Z,2.70
2019-05-16T01:43:39.107Z,2.90
2019-05-16T01:44:39.084Z,2.70
2019-05-16T01:45:39.104Z,2.60
2019-05-16T01:46:39.258Z,2.70
2019-05-16T01:47:39.473Z,2.60
2019-05-16T01:48:39.042Z,2.60
2019-05-16T01:49:39.081Z,2.70
2019-05-16T01:50:39.028Z,2.60
2019-05-16T01:51:39.050Z,2.30
2019-05-16T01:52:38.997Z,2.70
2019-05-16T01:53:39.561Z,2.70
2019-05-16T01:54:39.012Z,2.70
2019-05-16T01:55:39.029Z,2.70
2019-05-16T01:56:38.983Z,2.60
2019-05-16T01:57:39.326Z,2.40
2019-05-16T01:58:38.936Z,2.50
2019-05-16T01:59:38.919Z,2.60
2019-05-16T02:00:49.157Z,2.80
2019-05-16T02:01:39.902Z,2.80
2019-05-16T02:02:38.887Z,2.50
2019-05-16T02:03:38.961Z,2.60
2019-05-16T02:04:38.866Z,2.50
2019-05-16T02:05:38.936Z,2.90
2019-05-16T02:06:50.732Z,2.50
2019-05-16T02:07:39.834Z,2.70
2019-05-16T02:08:38.826Z,2.70
2019-05-16T02:09:38.841Z,2.80
2019-05-16T02:10:38.822Z,2.40
2019-05-16T02:11:38.929Z,2.60
2019-05-16T02:12:38.782Z,2.50
2019-05-16T02:13:39.234Z,2.90
2019-05-16T02:14:38.922Z,2.80
2019-05-16T02:15:38.765Z,2.60
2019-05-16T02:16:38.732Z,2.90
2019-05-16T02:17:38.767Z,2.70
2019-05-16T02:18:38.739Z,2.50
2019-05-16T02:19:38.700Z,2.80
2019-05-16T02:20:39.211Z,2.60
2019-05-16T02:21:38.976Z,2.90
2019-05-16T02:22:39.095Z,2.60
2019-05-16T02:23:38.670Z,2.40
2019-05-16T02:24:38.968Z,2.50
2019-05-16T02:25:40.890Z,2.70
2019-05-16T02:26:38.782Z,2.30
2019-05-16T02:27:41.124Z,2.30
2019-05-16T02:28:40.894Z,2.40
2019-05-16T02:29:40.118Z,2.30
2019-05-16T02:30:41.945Z,2.20
2019-05-16T02:31:41.819Z,2.40
2019-05-16T02:32:41.325Z,2.60
2019-05-16T02:33:40.618Z,2.40
2019-05-16T02:34:41.387Z,2.80
2019-05-16T02:35:40.607Z,2.30
2019-05-16T02:36:40.508Z,2.40
2019-05-16T02:37:41.780Z,2.50
2019-05-16T02:38:41.998Z,2.60
2019-05-16T02:39:40.938Z,2.50
2019-05-16T02:40:41.523Z,2.30
2019-05-16T02:41:38.461Z,2.30
2019-05-16T02:42:41.764Z,2.40
2019-05-16T02:43:41.716Z,2.60
2019-05-16T02:44:41.316Z,2.70
2019-05-16T02:45:41.489Z,2.20
2019-05-16T02:46:41.632Z,2.40
2019-05-16T02:47:41.983Z,2.70
2019-05-16T02:48:40.837Z,2.90
2019-05-16T02:49:41.192Z,2.80
2019-05-16T02:50:41.265Z,2.60
2019-05-16T02:51:40.568Z,2.90
2019-05-16T02:52:41.048Z,2.80
2019-05-16T02:53:41.323Z,2.90
2019-05-16T02:54:41.309Z,2.90
2019-05-16T02:55:40.846Z,2.90
2019-05-16T02:56:41.434Z,2.80
2019-05-16T02:57:41.576Z,2.70
2019-05-16T02:58:44.181Z,2.60
2019-05-16T02:59:41.591Z,2.80
2019-05-16T03:00:41.920Z,2.80
2019-05-16T03:01:40.798Z,3.10
2019-05-16T03:02:41.586Z,2.50
2019-05-16T03:03:40.207Z,2.60
2019-05-16T03:04:43.201Z,2.80
2019-05-16T03:05:41.597Z,2.60
2019-05-16T03:06:40.858Z,2.70
2019-05-16T03:07:45.834Z,2.40
2019-05-16T03:08:41.255Z,2.70
2019-05-16T03:09:40.890Z,2.90
2019-05-16T03:10:41.042Z,2.60
2019-05-16T03:11:38.173Z,2.50
2019-05-16T03:12:40.858Z,2.80
2019-05-16T03:13:38.119Z,2.80
2019-05-16T03:14:38.152Z,2.50
2019-05-16T03:15:40.797Z,2.60
2019-05-16T03:16:41.518Z,2.80
2019-05-16T03:17:40.283Z,2.50
2019-05-16T03:18:41.120Z,2.90
2019-05-16T03:19:38.059Z,2.90
2019-05-16T03:20:40.584Z,2.90
2019-05-16T03:21:41.138Z,2.70
2019-05-16T03:22:40.599Z,2.80
2019-05-16T03:23:41.705Z,3.00
2019-05-16T03:24:41.729Z,2.70
2019-05-16T03:25:38.003Z,2.50
2019-05-16T03:26:40.789Z,2.70
2019-05-16T03:27:41.012Z,2.60
2019-05-16T03:28:41.098Z,2.70
2019-05-16T03:29:37.940Z,2.50
2019-05-16T03:30:43.886Z,2.80
2019-05-16T03:31:44.510Z,2.80
2019-05-16T03:32:44.489Z,2.60
2019-05-16T03:33:47.348Z,2.60
2019-05-16T03:34:43.416Z,2.50
2019-05-16T03:35:44.040Z,2.80
2019-05-16T03:36:43.886Z,2.70
2019-05-16T03:37:51.557Z,2.60
2019-05-16T03:38:41.298Z,2.60
2019-05-16T03:39:40.541Z,2.80
2019-05-16T03:40:41.009Z,2.70
2019-05-16T03:41:37.808Z,2.50
2019-05-16T03:42:41.353Z,2.70
2019-05-16T03:43:41.010Z,2.80
2019-05-16T03:44:40.862Z,2.70
2019-05-16T03:45:41.411Z,2.50
2019-05-16T03:46:41.050Z,3.10
2019-05-16T03:47:37.748Z,2.90
2019-05-16T03:48:40.648Z,2.90
2019-05-16T03:49:37.757Z,3.00
2019-05-16T03:50:37.707Z,2.70
2019-05-16T03:51:37.717Z,2.70
2019-05-16T03:52:42.406Z,2.80
2019-05-16T03:53:40.323Z,2.40
2019-05-16T03:54:37.688Z,2.70
2019-05-16T03:55:40.476Z,2.10
2019-05-16T03:56:40.544Z,2.30
2019-05-16T03:57:41.058Z,2.30
2019-05-16T03:58:37.636Z,2.30
2019-05-16T03:59:40.698Z,2.50
2019-05-16T04:00:37.616Z,2.70
2019-05-16T04:01:40.677Z,2.30
2019-05-16T04:02:37.581Z,2.70
2019-05-16T04:03:40.982Z,2.70
2019-05-16T04:04:37.565Z,2.50
2019-05-16T04:05:41.190Z,2.50
2019-05-16T04:06:37.533Z,2.40
2019-05-16T04:07:41.050Z,2.60
2019-05-16T04:08:37.509Z,2.60
2019-05-16T04:09:40.896Z,2.60
2019-05-16T04:10:37.492Z,2.30
2019-05-16T04:11:37.478Z,2.40
2019-05-16T04:12:37.468Z,2.30
2019-05-16T04:13:40.770Z,2.60
2019-05-16T04:14:40.618Z,2.80
2019-05-16T04:15:40.598Z,2.50
2019-05-16T04:16:37.431Z,2.70
2019-05-16T04:17:40.811Z,2.60
2019-05-16T04:18:37.405Z,2.60
2019-05-16T04:19:37.430Z,2.60
2019-05-16T04:20:37.387Z,2.40
2019-05-16T04:21:37.368Z,2.50
2019-05-16T04:22:40.598Z,2.50
2019-05-16T04:23:37.361Z,2.50
2019-05-16T04:24:37.362Z,2.40
2019-05-16T04:25:40.754Z,2.40
2019-05-16T04:26:37.329Z,2.50
2019-05-16T04:27:37.303Z,2.30
2019-05-16T04:28:40.942Z,2.50
2019-05-16T04:29:40.579Z,2.40
2019-05-16T04:30:37.320Z,2.70
2019-05-16T04:31:37.294Z,2.20
2019-05-16T04:32:37.244Z,2.30
2019-05-16T04:33:37.234Z,2.30
2019-05-16T04:34:37.235Z,2.50
2019-05-16T04:35:37.232Z,2.50
2019-05-16T04:36:37.247Z,2.50
2019-05-16T04:37:37.239Z,2.40
2019-05-16T04:38:42.839Z,2.30
2019-05-16T04:39:41.250Z,2.40
2019-05-16T04:40:38.497Z,2.30
2019-05-16T04:41:40.697Z,2.20
2019-05-16T04:42:37.157Z,2.40
2019-05-16T04:43:37.184Z,2.30
2019-05-16T04:44:37.127Z,2.50
2019-05-16T04:45:37.122Z,2.30
2019-05-16T04:46:40.840Z,2.40
2019-05-16T04:47:37.104Z,2.50
2019-05-16T04:48:37.096Z,2.20
2019-05-16T04:49:37.128Z,2.50
2019-05-16T04:50:37.082Z,2.40
2019-05-16T04:51:37.060Z,2.30
2019-05-16T04:52:37.051Z,2.30
2019-05-16T04:53:37.050Z,2.10
2019-05-16T04:54:37.025Z,2.20
2019-05-16T04:55:37.048Z,2.10
2019-05-16T04:56:37.045Z,2.30
2019-05-16T04:57:36.995Z,2.20
2019-05-16T04:58:37.012Z,2.10
2019-05-16T04:59:36.965Z,2.30
2019-05-16T05:00:36.958Z,2.20
2019-05-16T05:01:36.989Z,2.30
2019-05-16T05:02:36.943Z,2.20
2019-05-16T05:03:36.925Z,2.30
2019-05-16T05:04:36.913Z,2.20
2019-05-16T05:05:36.922Z,2.30
2019-05-16T05:06:36.898Z,2.10
2019-05-16T05:07:36.907Z,2.30
2019-05-16T05:08:50.577Z,2.00
2019-05-16T05:09:40.587Z,2.10
2019-05-16T05:10:36.862Z,2.30
2019-05-16T05:11:36.846Z,2.20
2019-05-16T05:12:36.859Z,2.00
2019-05-16T05:13:36.837Z,2.20
2019-05-16T05:14:36.807Z,2.30
2019-05-16T05:15:36.832Z,2.10
2019-05-16T05:16:36.790Z,2.30
2019-05-16T05:17:36.784Z,2.50
2019-05-16T05:18:36.791Z,2.50
2019-05-16T05:19:36.773Z,2.30
2019-05-16T05:20:36.752Z,2.40
2019-05-16T05:21:36.749Z,2.00
2019-05-16T05:22:36.726Z,2.40
2019-05-16T05:23:36.727Z,2.40
2019-05-16T05:24:36.708Z,2.40
2019-05-16T05:25:36.738Z,2.30
2019-05-16T05:26:36.712Z,2.50
2019-05-16T05:27:36.674Z,2.50
2019-05-16T05:28:36.701Z,2.10
2019-05-16T05:29:36.662Z,2.40
2019-05-16T05:30:36.645Z,2.40
2019-05-16T05:31:36.662Z,2.30
2019-05-16T05:32:36.616Z,2.50
2019-05-16T05:33:36.608Z,2.70
2019-05-16T05:34:36.637Z,2.70
2019-05-16T05:35:36.607Z,2.70
2019-05-16T05:36:36.576Z,2.80
2019-05-16T05:37:36.603Z,2.80
2019-05-16T05:38:36.565Z,2.80
2019-05-16T05:39:36.554Z,2.70
2019-05-16T05:40:36.544Z,3.00
2019-05-16T05:41:36.526Z,2.60
2019-05-16T05:42:36.514Z,2.40
2019-05-16T05:43:36.522Z,2.50
2019-05-16T05:44:36.487Z,2.50
2019-05-16T05:45:36.509Z,2.30
2019-05-16T05:46:36.465Z,2.60
2019-05-16T05:47:37.072Z,2.10
2019-05-16T05:48:36.440Z,2.50
2019-05-16T05:49:36.445Z,2.10
2019-05-16T05:50:36.471Z,2.40
2019-05-16T05:51:36.438Z,2.20
2019-05-16T05:52:36.395Z,2.50
2019-05-16T05:53:36.444Z,2.50
2019-05-16T05:54:36.426Z,2.30
2019-05-16T05:55:36.387Z,2.00
2019-05-16T05:56:36.352Z,2.40
2019-05-16T05:57:36.354Z,2.10
2019-05-16T05:58:36.336Z,2.30
2019-05-16T05:59:36.332Z,2.20
2019-05-16T06:00:36.318Z,1.90
2019-05-16T06:01:36.326Z,2.30
2019-05-16T06:02:36.283Z,2.30
2019-05-16T06:03:36.273Z,2.30
2019-05-16T06:04:36.261Z,2.10
2019-05-16T06:05:36.244Z,2.30
2019-05-16T06:06:36.240Z,2.10
2019-05-16T06:07:36.275Z,2.40
2019-05-16T06:08:36.227Z,2.30
2019-05-16T06:09:48.757Z,2.30
2019-05-16T06:10:37.207Z,2.20
2019-05-16T06:11:36.188Z,2.10
2019-05-16T06:12:36.169Z,2.30
2019-05-16T06:13:36.183Z,2.20
2019-05-16T06:14:36.171Z,2.10
2019-05-16T06:15:36.153Z,2.10
2019-05-16T06:16:36.118Z,2.20
2019-05-16T06:17:36.113Z,2.20
2019-05-16T06:18:36.104Z,1.80
2019-05-16T06:19:36.107Z,2.40
2019-05-16T06:20:36.076Z,2.40
2019-05-16T06:21:36.078Z,2.10
2019-05-16T06:22:36.058Z,2.00
2019-05-16T06:23:36.050Z,2.10
2019-05-16T06:24:36.035Z,2.10
2019-05-16T06:25:36.054Z,2.10
2019-05-16T06:26:36.060Z,2.10
2019-05-16T06:27:36.043Z,2.30
2019-05-16T06:28:36.046Z,2.60
2019-05-16T06:29:35.992Z,1.90
2019-05-16T06:30:35.963Z,2.20
2019-05-16T06:31:36.004Z,2.30
2019-05-16T06:32:36.009Z,1.80
2019-05-16T06:33:35.942Z,2.30
2019-05-16T06:34:35.932Z,1.90
2019-05-16T06:35:35.956Z,2.20
2019-05-16T06:36:35.912Z,2.10
2019-05-16T06:37:35.918Z,2.20
2019-05-16T06:38:35.880Z,2.20
2019-05-16T06:39:42.000Z,2.00
2019-05-16T06:40:36.849Z,2.00
2019-05-16T06:41:39.639Z,2.00
2019-05-16T06:42:35.835Z,2.10
2019-05-16T06:43:35.848Z,2.00
2019-05-16T06:44:35.807Z,1.80
2019-05-16T06:45:35.806Z,2.00
2019-05-16T06:46:44.157Z,2.00
2019-05-16T06:47:36.777Z,1.70
2019-05-16T06:48:35.798Z,2.00
2019-05-16T06:49:35.762Z,2.10
2019-05-16T06:50:35.742Z,1.80
2019-05-16T06:51:35.725Z,1.90
2019-05-16T06:52:35.778Z,2.10
2019-05-16T06:53:35.707Z,1.70
2019-05-16T06:54:35.691Z,1.80
2019-05-16T06:55:35.749Z,1.80
2019-05-16T06:56:35.696Z,2.00
2019-05-16T06:57:35.653Z,2.00
2019-05-16T06:58:47.428Z,2.00
2019-05-16T06:59:36.651Z,1.90
2019-05-16T07:00:35.632Z,1.90
2019-05-16T07:01:35.632Z,1.80
2019-05-16T07:02:35.614Z,1.80
2019-05-16T07:03:35.580Z,1.70
2019-05-16T07:04:35.565Z,1.80
2019-05-16T07:05:35.557Z,1.80
2019-05-16T07:06:51.856Z,1.70
2019-05-16T07:07:36.548Z,1.80
2019-05-16T07:08:35.514Z,1.70
2019-05-16T07:09:35.525Z,2.10
2019-05-16T07:10:35.499Z,1.80
2019-05-16T07:11:35.497Z,1.90
2019-05-16T07:12:35.480Z,1.50
2019-05-16T07:13:35.484Z,1.80
2019-05-16T07:14:35.450Z,1.60
2019-05-16T07:15:35.466Z,1.90
2019-05-16T07:16:35.464Z,1.60
2019-05-16T07:17:35.417Z,1.70
2019-05-16T07:18:35.436Z,1.60
2019-05-16T07:19:35.647Z,1.60
2019-05-16T07:20:35.384Z,2.00
2019-05-16T07:21:35.356Z,1.60
2019-05-16T07:22:35.351Z,1.70
2019-05-16T07:23:35.336Z,2.00
2019-05-16T07:24:35.322Z,1.90
2019-05-16T07:25:35.373Z,1.80
2019-05-16T07:26:35.321Z,1.50
2019-05-16T07:27:35.334Z,1.80
2019-05-16T07:28:35.274Z,1.70
2019-05-16T07:29:35.273Z,1.80
2019-05-16T07:30:35.260Z,2.10
2019-05-16T07:31:35.273Z,1.70
2019-05-16T07:32:35.224Z,1.90
2019-05-16T07:33:35.215Z,1.70
2019-05-16T07:34:35.220Z,1.90
2019-05-16T07:35:35.188Z,1.90
2019-05-16T07:36:35.207Z,1.80
2019-05-16T07:37:35.196Z,2.00
2019-05-16T07:38:35.155Z,2.40
2019-05-16T07:39:35.144Z,2.40
2019-05-16T07:40:35.129Z,2.20
2019-05-16T07:41:35.135Z,2.10
2019-05-16T07:42:35.110Z,2.10
2019-05-16T07:43:35.151Z,2.00
2019-05-16T07:44:35.083Z,1.70
2019-05-16T07:45:37.695Z,2.00
2019-05-16T07:46:35.074Z,1.90
2019-05-16T07:47:35.063Z,2.20
2019-05-16T07:48:35.069Z,2.20
2019-05-16T07:49:35.104Z,2.10
2019-05-16T07:50:35.045Z,2.10
2019-05-16T07:51:35.031Z,2.10
2019-05-16T07:52:36.230Z,2.10
2019-05-16T07:53:34.977Z,1.60
2019-05-16T07:54:34.982Z,1.90
2019-05-16T07:55:34.969Z,1.90
2019-05-16T07:56:34.952Z,1.80
2019-05-16T07:57:34.934Z,2.10
2019-05-16T07:58:34.923Z,2.00
2019-05-16T07:59:34.934Z,2.10
2019-05-16T08:00:49.456Z,1.90
2019-05-16T08:01:35.882Z,1.90
2019-05-16T08:02:34.890Z,2.20
2019-05-16T08:03:34.858Z,2.10
2019-05-16T08:04:34.854Z,2.10
2019-05-16T08:05:34.866Z,2.10
2019-05-16T08:06:34.820Z,1.70
2019-05-16T08:07:34.829Z,2.00
2019-05-16T08:08:34.805Z,2.00
2019-05-16T08:09:34.787Z,2.00
2019-05-16T08:11:35.788Z,2.10
2019-05-16T08:12:34.753Z,1.80
2019-05-16T08:13:34.743Z,1.90
2019-05-16T08:14:35.273Z,2.00
2019-05-16T08:15:34.748Z,1.90
2019-05-16T08:16:34.711Z,2.20
2019-05-16T08:17:34.769Z,2.20
2019-05-16T08:18:34.706Z,1.90
2019-05-16T08:19:34.714Z,1.90
2019-05-16T08:20:34.707Z,2.00
2019-05-16T08:21:34.659Z,1.90
2019-05-16T08:22:34.644Z,1.80
2019-05-16T08:23:34.674Z,1.70
2019-05-16T08:24:36.191Z,1.90
2019-05-16T08:25:34.620Z,2.00
2019-05-16T08:26:39.085Z,1.90
2019-05-16T08:27:35.593Z,1.90
2019-05-16T08:28:34.581Z,1.70
2019-05-16T08:29:34.666Z,1.80
2019-05-16T08:30:34.564Z,1.60
2019-05-16T08:31:34.689Z,1.70
2019-05-16T08:32:34.531Z,2.00
2019-05-16T08:33:34.530Z,1.80
2019-05-16T08:34:34.519Z,1.70
2019-05-16T08:35:34.523Z,2.00
2019-05-16T08:36:34.502Z,1.80
2019-05-16T08:38:35.471Z,1.60
2019-05-16T08:39:34.452Z,1.60
2019-05-16T08:40:59.880Z,1.80
2019-05-16T08:41:35.443Z,1.90
2019-05-16T08:42:34.425Z,1.70
2019-05-16T08:43:34.441Z,1.60
2019-05-16T08:44:34.405Z,1.80
2019-05-16T08:45:34.381Z,1.70
2019-05-16T08:46:34.371Z,1.60
2019-05-16T08:47:34.411Z,1.70
2019-05-16T08:48:34.418Z,1.50
2019-05-16T08:49:34.337Z,1.50
2019-05-16T08:50:05.093Z,1.80
2019-05-16T08:50:35.193Z,1.80
2019-05-16T08:51:34.334Z,1.60
2019-05-16T08:52:34.301Z,1.70
2019-05-16T08:53:34.342Z,1.80
2019-05-16T08:54:34.301Z,1.70
2019-05-16T08:55:34.279Z,1.80
2019-05-16T08:56:34.259Z,1.80
2019-05-16T08:57:34.278Z,1.70
2019-05-16T08:58:34.241Z,1.80
2019-05-16T08:59:34.283Z,1.60
2019-05-16T09:00:34.233Z,1.80
2019-05-16T09:01:35.241Z,2.00
2019-05-16T09:03:35.208Z,2.00
2019-05-16T09:04:34.554Z,1.90
2019-05-16T09:05:34.194Z,1.40
2019-05-16T09:06:34.151Z,1.80
2019-05-16T09:07:34.145Z,1.80
2019-05-16T09:08:34.144Z,1.80
2019-05-16T09:09:44.486Z,1.80
2019-05-16T09:10:21.438Z,1.70
2019-05-16T09:10:25.133Z,2.10
2019-05-16T09:11:43.554Z,1.80
2019-05-16T09:12:37.132Z,1.70
2019-05-16T09:13:36.850Z,1.70
2019-05-16T09:14:36.331Z,1.80
2019-05-16T09:15:34.049Z,1.70
2019-05-16T09:16:37.076Z,1.70
2019-05-16T09:17:34.043Z,1.50
2019-05-16T09:18:36.426Z,1.70
2019-05-16T09:18:40.571Z,1.80
2019-05-16T09:19:36.940Z,1.80
2019-05-16T09:20:33.999Z,1.90
2019-05-16T09:21:34.004Z,1.90
2019-05-16T09:22:33.986Z,1.80
2019-05-16T09:23:33.952Z,2.00
2019-05-16T09:24:33.968Z,1.90
2019-05-16T09:25:36.822Z,1.90
2019-05-16T09:26:33.939Z,2.10
2019-05-16T09:27:33.963Z,2.00
2019-05-16T09:28:33.960Z,2.40
2019-05-16T09:29:36.589Z,1.90
2019-05-16T09:30:36.903Z,2.10
2019-05-16T09:31:33.864Z,2.00
2019-05-16T09:32:36.687Z,1.90
2019-05-16T09:33:33.837Z,1.90
2019-05-16T09:34:33.872Z,2.10
2019-05-16T09:35:36.836Z,1.90
2019-05-16T09:36:33.813Z,1.90
2019-05-16T09:37:33.795Z,1.70
2019-05-16T09:38:33.790Z,2.30
2019-05-16T09:39:33.771Z,2.30
2019-05-16T09:40:33.778Z,1.80
2019-05-16T09:41:53.280Z,1.80
2019-05-16T09:42:37.044Z,1.90
2019-05-16T09:43:33.724Z,1.80
2019-05-16T09:44:33.719Z,1.80
2019-05-16T09:45:33.699Z,1.80
2019-05-16T09:46:33.709Z,1.80
2019-05-16T09:47:33.677Z,2.00
2019-05-16T09:48:33.705Z,1.80
2019-05-16T09:49:33.696Z,2.10
2019-05-16T09:50:33.672Z,1.90
2019-05-16T09:51:33.635Z,2.00
2019-05-16T09:52:33.672Z,1.80
2019-05-16T09:53:33.616Z,1.60
2019-05-16T09:54:33.604Z,1.90
2019-05-16T09:55:33.590Z,1.80
2019-05-16T09:56:33.633Z,1.80
2019-05-16T09:57:33.571Z,1.90
2019-05-16T09:58:33.607Z,1.80
2019-05-16T09:59:33.549Z,1.90
2019-05-16T10:00:33.534Z,2.00
2019-05-16T10:01:33.524Z,2.10
2019-05-16T10:02:33.571Z,1.90
2019-05-16T10:03:33.505Z,1.80
2019-05-16T10:04:33.553Z,1.90
2019-05-16T10:05:33.489Z,1.90
2019-05-16T10:06:33.472Z,1.80
2019-05-16T10:07:33.493Z,1.70
2019-05-16T10:08:34.224Z,1.60
2019-05-16T10:09:42.155Z,2.20
2019-05-16T10:10:36.803Z,2.20
2019-05-16T10:11:33.506Z,2.30
2019-05-16T10:12:33.405Z,2.10
2019-05-16T10:13:33.413Z,2.20
2019-05-16T10:14:33.384Z,1.90
2019-05-16T10:15:33.369Z,2.10
2019-05-16T10:16:33.382Z,2.10
2019-05-16T10:17:33.354Z,2.20
2019-05-16T10:18:33.358Z,1.90
2019-05-16T10:19:33.351Z,1.90
2019-05-16T10:20:33.325Z,2.00
2019-05-16T10:21:33.310Z,2.10
2019-05-16T10:22:33.319Z,1.90
2019-05-16T10:23:33.287Z,2.10
2019-05-16T10:24:33.280Z,2.40
2019-05-16T10:25:33.275Z,2.30
2019-05-16T10:26:33.304Z,2.30
2019-05-16T10:27:33.245Z,2.30
2019-05-16T10:28:33.262Z,2.30
2019-05-16T10:29:33.237Z,2.30
2019-05-16T10:30:33.234Z,2.30
2019-05-16T10:31:44.789Z,2.50
2019-05-16T10:32:36.543Z,2.30
2019-05-16T10:33:34.211Z,2.30
2019-05-16T10:34:33.228Z,2.20
2019-05-16T10:35:33.174Z,2.10
2019-05-16T10:36:33.167Z,2.20
2019-05-16T10:37:33.155Z,2.00
2019-05-16T10:38:33.147Z,2.20
2019-05-16T10:39:33.183Z,2.20
2019-05-16T10:40:33.126Z,2.30
2019-05-16T10:41:33.108Z,2.70
2019-05-16T10:42:33.111Z,2.60
2019-05-16T10:43:33.085Z,2.40
2019-05-16T10:44:33.130Z,2.50
2019-05-16T10:45:33.109Z,2.40
2019-05-16T10:46:33.065Z,2.40
2019-05-16T10:47:33.050Z,2.60
2019-05-16T10:48:33.613Z,2.40
2019-05-16T10:49:37.686Z,2.50
2019-05-16T10:50:34.122Z,2.30
2019-05-16T10:51:33.053Z,1.80
2019-05-16T10:52:32.999Z,2.60
2019-05-16T10:54:01.327Z,2.20
2019-05-16T10:54:34.025Z,2.30
2019-05-16T10:55:32.969Z,2.20
2019-05-16T10:56:32.991Z,2.10
2019-05-16T10:57:33.072Z,2.10
2019-05-16T10:58:41.577Z,2.10
2019-05-16T11:01:11.123Z,2.40
2019-05-16T11:01:33.929Z,2.30
2019-05-16T11:02:33.092Z,2.30
2019-05-16T11:03:32.906Z,2.70
2019-05-16T11:04:49.880Z,2.60
2019-05-16T11:05:36.253Z,2.90
2019-05-16T11:06:33.864Z,2.50
2019-05-16T11:07:32.916Z,2.70
2019-05-16T11:08:32.884Z,2.40
2019-05-16T11:09:32.824Z,2.50
2019-05-16T11:10:32.871Z,2.50
2019-05-16T11:11:32.801Z,2.50
2019-05-16T11:12:46.101Z,2.30
2019-05-16T11:13:33.804Z,2.50
2019-05-16T11:14:32.779Z,2.40
2019-05-16T11:15:32.784Z,2.40
2019-05-16T11:16:32.757Z,2.50
2019-05-16T11:17:32.756Z,2.60
2019-05-16T11:18:32.734Z,2.40
2019-05-16T11:19:32.802Z,2.70
2019-05-16T11:20:32.742Z,2.60
2019-05-16T11:21:32.702Z,2.60
2019-05-16T11:22:32.692Z,2.70
2019-05-16T11:23:32.695Z,2.40
2019-05-16T11:24:32.776Z,2.60
2019-05-16T11:25:32.852Z,2.50
2019-05-16T11:26:32.654Z,2.50
2019-05-16T11:27:32.647Z,2.60
2019-05-16T11:28:32.654Z,2.60
2019-05-16T11:29:32.648Z,2.60
2019-05-16T11:30:32.673Z,2.30
2019-05-16T11:31:32.637Z,2.50
2019-05-16T11:32:32.600Z,2.10
2019-05-16T11:33:32.607Z,2.30
2019-05-16T11:34:32.580Z,2.30
2019-05-16T11:35:32.576Z,2.60
2019-05-16T11:36:32.560Z,2.50
2019-05-16T11:37:32.611Z,2.80
2019-05-16T11:38:32.539Z,2.50
2019-05-16T11:39:32.542Z,3.20
2019-05-16T11:40:32.522Z,2.90
2019-05-16T11:41:32.515Z,2.60
2019-05-16T11:42:32.510Z,2.90
2019-05-16T11:43:32.524Z,2.70
2019-05-16T11:44:32.500Z,2.70
2019-05-16T11:45:32.469Z,2.70
2019-05-16T11:46:32.463Z,2.80
2019-05-16T11:47:32.449Z,2.70
2019-05-16T11:48:32.465Z,2.80
2019-05-16T11:49:32.448Z,2.80
2019-05-16T11:50:32.443Z,3.10
2019-05-16T11:51:32.409Z,3.20
2019-05-16T11:52:32.402Z,3.10
2019-05-16T11:53:32.413Z,2.90
2019-05-16T11:54:32.388Z,3.60
2019-05-16T11:55:35.194Z,3.20
2019-05-16T11:56:33.355Z,3.60
2019-05-16T11:57:32.360Z,3.00
2019-05-16T11:58:32.381Z,3.10
2019-05-16T11:59:32.322Z,3.30
2019-05-16T12:00:32.312Z,3.90
2019-05-16T12:01:32.344Z,3.40
2019-05-16T12:02:32.310Z,3.50
2019-05-16T12:03:32.285Z,3.80
2019-05-16T12:04:32.270Z,3.70
2019-05-16T12:05:32.280Z,3.40
2019-05-16T12:06:32.277Z,3.40
2019-05-16T12:07:34.954Z,3.70
2019-05-16T12:08:32.765Z,3.80
2019-05-16T12:09:47.157Z,3.50
2019-05-16T12:10:33.204Z,3.90
2019-05-16T12:11:32.195Z,3.70
2019-05-16T12:12:32.180Z,3.40
2019-05-16T12:13:33.044Z,3.30
2019-05-16T12:14:32.163Z,3.20
2019-05-16T12:15:32.148Z,3.30
2019-05-16T12:16:32.137Z,2.90
2019-05-16T12:17:32.129Z,3.30
2019-05-16T12:18:32.113Z,3.20
2019-05-16T12:19:35.542Z,3.30
2019-05-16T12:20:33.092Z,3.10
2019-05-16T12:21:32.097Z,3.10
2019-05-16T12:22:32.075Z,3.00
2019-05-16T12:23:32.069Z,3.00
2019-05-16T12:24:37.708Z,3.20
2019-05-16T12:25:33.058Z,3.10
2019-05-16T12:26:32.037Z,2.80
2019-05-16T12:27:33.664Z,3.10
2019-05-16T12:28:32.004Z,3.30
2019-05-16T12:29:31.999Z,2.90
2019-05-16T12:30:31.989Z,3.10
2019-05-16T12:31:32.572Z,3.10
2019-05-16T12:32:31.964Z,3.20
2019-05-16T12:33:31.960Z,3.40
2019-05-16T12:34:31.938Z,2.80
2019-05-16T12:35:31.929Z,2.60
2019-05-16T12:36:31.922Z,3.00
2019-05-16T12:37:31.928Z,3.00
2019-05-16T12:38:31.896Z,3.10
2019-05-16T12:39:31.884Z,2.80
2019-05-16T12:40:31.880Z,3.20
2019-05-16T12:41:31.862Z,3.20
2019-05-16T12:42:31.858Z,3.00
2019-05-16T12:43:44.933Z,3.00
2019-05-16T12:44:32.826Z,3.30
2019-05-16T12:45:31.820Z,3.20
2019-05-16T12:46:31.812Z,3.00
2019-05-16T12:47:31.798Z,3.00
2019-05-16T12:48:31.784Z,2.80
2019-05-16T12:49:31.793Z,2.80
2019-05-16T12:50:31.769Z,3.20
2019-05-16T12:51:31.764Z,3.20
2019-05-16T12:52:31.745Z,2.90
2019-05-16T12:53:32.101Z,2.90
2019-05-16T12:54:31.722Z,4.00
2019-05-16T12:55:31.726Z,3.50
2019-05-16T12:56:31.703Z,3.50
2019-05-16T12:57:31.686Z,3.00
2019-05-16T12:58:37.960Z,3.10
2019-05-16T12:59:32.662Z,5.50
2019-05-16T13:00:31.657Z,3.40
2019-05-16T13:01:34.362Z,4.40
2019-05-16T13:02:31.632Z,4.60
2019-05-16T13:03:31.623Z,3.60
2019-05-16T13:04:31.613Z,3.20
2019-05-16T13:05:31.599Z,3.30
2019-05-16T13:06:31.587Z,4.30
2019-05-16T13:07:31.636Z,3.80
2019-05-16T13:08:31.585Z,3.20
2019-05-16T13:09:31.556Z,4.40
2019-05-16T13:10:31.549Z,2.90
2019-05-16T13:11:31.537Z,3.20
2019-05-16T13:12:31.524Z,4.80
2019-05-16T13:13:31.532Z,3.40
2019-05-16T13:14:31.499Z,3.00
2019-05-16T13:15:31.489Z,3.10
2019-05-16T13:16:31.477Z,3.10
2019-05-16T13:17:31.473Z,2.70
2019-05-16T13:18:31.456Z,2.90
2019-05-16T13:19:33.818Z,3.00